sensor_id;sensor_type;location;lat;lon;timestamp;temperature;humidity
6355;DHT22;3210;48.708;9.030;2023-12-20T09:17:28;3.60;99.90
6355;DHT22;3210;48.708;9.030;2023-12-20T09:20:03;3.80;99.90
6355;DHT22;3210;48.708;9.030;2023-12-20T09:22:58;3.90;99.90
6355;DHT22;3210;48.708;9.030;2023-12-20T09:25:48;4.00;99.90
6355;DHT22;3210;48.708;9.030;2023-12-20T09:28:50;4.00;29.00
6355;DHT22;3210;48.708;9.030;2023-12-20T10:25:08;4.80;99.90
6355;DHT22;3210;48.708;9.030;2023-12-20T10:27:40;4.70;99.90
6355;DHT22;3210;48.708;9.030;2023-12-20T10:30:42;4.70;99.90
6355;DHT22;3210;48.708;9.030;2023-12-20T10:36:29;4.70;99.90
6355;DHT22;3210;48.708;9.030;2023-12-20T10:50:10;4.80;99.90
6355;DHT22;3210;48.708;9.030;2023-12-20T11:02:44;4.80;99.90
6355;DHT22;3210;48.708;9.030;2023-12-20T11:05:25;4.80;99.90
6355;DHT22;3210;48.708;9.030;2023-12-20T11:08:00;4.80;99.90
6355;DHT22;3210;48.708;9.030;2023-12-20T11:10:39;4.80;99.90
6355;DHT22;3210;48.708;9.030;2023-12-20T11:30:14;4.60;99.90
6355;DHT22;3210;48.708;9.030;2023-12-20T11:32:48;4.70;99.90
6355;DHT22;3210;48.708;9.030;2023-12-20T11:35:34;4.70;99.90
6355;DHT22;3210;48.708;9.030;2023-12-20T11:38:35;4.60;99.90
6355;DHT22;3210;48.708;9.030;2023-12-20T11:42:09;4.70;99.90
6355;DHT22;3210;48.708;9.030;2023-12-20T11:45:37;4.60;99.90
6355;DHT22;3210;48.708;9.030;2023-12-20T11:48:07;4.50;99.90
6355;DHT22;3210;48.708;9.030;2023-12-20T11:50:46;4.50;99.90
6355;DHT22;3210;48.708;9.030;2023-12-20T11:53:16;4.50;99.90
6355;DHT22;3210;48.708;9.030;2023-12-20T11:55:49;4.60;20.20
6355;DHT22;3210;48.708;9.030;2023-12-20T11:58:22;4.70;74.60
6355;DHT22;3210;48.708;9.030;2023-12-20T12:01:08;4.80;59.20
6355;DHT22;3210;48.708;9.030;2023-12-20T12:04:39;4.80;43.90
6355;DHT22;3210;48.708;9.030;2023-12-20T12:07:13;4.80;93.60
6355;DHT22;3210;48.708;9.030;2023-12-20T12:09:43;4.90;93.40
6355;DHT22;3210;48.708;9.030;2023-12-20T12:12:14;5.10;64.00
6355;DHT22;3210;48.708;9.030;2023-12-20T12:14:46;5.10;74.10
6355;DHT22;3210;48.708;9.030;2023-12-20T12:46:47;5.40;1.00
6355;DHT22;3210;48.708;9.030;2023-12-20T12:49:40;5.40;1.00
6355;DHT22;3210;48.708;9.030;2023-12-20T12:52:31;5.40;1.00
6355;DHT22;3210;48.708;9.030;2023-12-20T12:55:51;5.40;1.00
6355;DHT22;3210;48.708;9.030;2023-12-20T12:58:40;5.50;1.00
6355;DHT22;3210;48.708;9.030;2023-12-20T13:01:17;5.40;1.00
6355;DHT22;3210;48.708;9.030;2023-12-20T13:17:33;5.50;1.00
6355;DHT22;3210;48.708;9.030;2023-12-20T13:20:12;5.50;1.00
6355;DHT22;3210;48.708;9.030;2023-12-20T13:23:36;5.30;1.00
6355;DHT22;3210;48.708;9.030;2023-12-20T13:26:11;5.20;1.00
6355;DHT22;3210;48.708;9.030;2023-12-20T13:28:58;5.30;1.00
6355;DHT22;3210;48.708;9.030;2023-12-20T13:31:52;5.40;1.00
6355;DHT22;3210;48.708;9.030;2023-12-20T13:55:58;5.30;1.00
6355;DHT22;3210;48.708;9.030;2023-12-20T13:58:32;5.30;1.00
6355;DHT22;3210;48.708;9.030;2023-12-20T14:01:51;5.20;1.00
6355;DHT22;3210;48.708;9.030;2023-12-20T14:08:45;5.00;6.30
6355;DHT22;3210;48.708;9.030;2023-12-20T14:15:15;4.90;4.10
6355;DHT22;3210;48.708;9.030;2023-12-20T14:27:34;4.80;97.60
6355;DHT22;3210;48.708;9.030;2023-12-20T14:30:23;4.90;91.00
6355;DHT22;3210;48.708;9.030;2023-12-20T14:32:57;4.90;99.90
6355;DHT22;3210;48.708;9.030;2023-12-20T14:35:46;4.80;99.90
6355;DHT22;3210;48.708;9.030;2023-12-20T14:38:25;4.70;99.90
6355;DHT22;3210;48.708;9.030;2023-12-20T15:00:58;4.60;99.90
6355;DHT22;3210;48.708;9.030;2023-12-20T15:19:27;4.30;1.00
6355;DHT22;3210;48.708;9.030;2023-12-20T15:32:17;4.20;1.00
6355;DHT22;3210;48.708;9.030;2023-12-20T15:40:37;4.10;1.00
6355;DHT22;3210;48.708;9.030;2023-12-20T15:43:20;4.20;1.00
6355;DHT22;3210;48.708;9.030;2023-12-20T15:46:16;4.10;1.00
6355;DHT22;3210;48.708;9.030;2023-12-20T16:38:22;4.00;1.00
6355;DHT22;3210;48.708;9.030;2023-12-20T16:40:56;3.90;1.00
6355;DHT22;3210;48.708;9.030;2023-12-20T16:43:27;4.00;1.00
6355;DHT22;3210;48.708;9.030;2023-12-20T16:46:22;3.90;1.00
6355;DHT22;3210;48.708;9.030;2023-12-20T16:49:13;3.90;1.00
6355;DHT22;3210;48.708;9.030;2023-12-20T17:04:02;3.80;1.00
6355;DHT22;3210;48.708;9.030;2023-12-20T17:06:35;3.80;1.00
6355;DHT22;3210;48.708;9.030;2023-12-20T17:09:09;3.80;12.90
6355;DHT22;3210;48.708;9.030;2023-12-20T17:11:38;3.80;1.00
6355;DHT22;3210;48.708;9.030;2023-12-20T17:17:07;3.70;1.00
6355;DHT22;3210;48.708;9.030;2023-12-20T17:22:53;3.70;1.00
6355;DHT22;3210;48.708;9.030;2023-12-20T17:25:27;3.60;22.40
6355;DHT22;3210;48.708;9.030;2023-12-20T17:44:46;3.60;45.10
6355;DHT22;3210;48.708;9.030;2023-12-20T17:47:16;3.60;1.00
6355;DHT22;3210;48.708;9.030;2023-12-20T17:55:45;3.60;1.00
6355;DHT22;3210;48.708;9.030;2023-12-20T17:58:33;3.60;11.40
6355;DHT22;3210;48.708;9.030;2023-12-20T18:33:51;3.80;1.00
6355;DHT22;3210;48.708;9.030;2023-12-20T19:11:31;3.80;1.00
6355;DHT22;3210;48.708;9.030;2023-12-20T19:19:23;3.80;1.00
6355;DHT22;3210;48.708;9.030;2023-12-20T19:22:13;3.80;1.00
6355;DHT22;3210;48.708;9.030;2023-12-20T19:25:18;3.70;1.00
6355;DHT22;3210;48.708;9.030;2023-12-20T19:28:12;3.80;1.00
6355;DHT22;3210;48.708;9.030;2023-12-20T19:30:57;3.60;1.00
6355;DHT22;3210;48.708;9.030;2023-12-20T19:33:40;3.80;1.00
6355;DHT22;3210;48.708;9.030;2023-12-20T19:36:50;3.70;1.00
6355;DHT22;3210;48.708;9.030;2023-12-20T20:03:29;3.70;1.00
6355;DHT22;3210;48.708;9.030;2023-12-20T20:06:19;3.60;1.00
6355;DHT22;3210;48.708;9.030;2023-12-20T20:09:27;3.60;1.00
6355;DHT22;3210;48.708;9.030;2023-12-20T20:12:35;3.70;1.00
6355;DHT22;3210;48.708;9.030;2023-12-20T20:15:59;3.70;1.00
6355;DHT22;3210;48.708;9.030;2023-12-20T20:31:57;3.70;1.00
6355;DHT22;3210;48.708;9.030;2023-12-20T20:34:39;3.60;15.90
6355;DHT22;3210;48.708;9.030;2023-12-20T20:37:36;3.60;1.00
6355;DHT22;3210;48.708;9.030;2023-12-20T20:40:25;3.60;49.10
6355;DHT22;3210;48.708;9.030;2023-12-20T20:43:15;3.70;1.00
6355;DHT22;3210;48.708;9.030;2023-12-20T20:46:07;3.70;4.00
6355;DHT22;3210;48.708;9.030;2023-12-20T20:48:59;3.60;1.00
6355;DHT22;3210;48.708;9.030;2023-12-20T20:51:34;3.60;1.00
6355;DHT22;3210;48.708;9.030;2023-12-20T21:48:03;3.70;1.00
6355;DHT22;3210;48.708;9.030;2023-12-20T21:50:47;3.70;1.00
6355;DHT22;3210;48.708;9.030;2023-12-20T21:53:41;3.70;1.00
6355;DHT22;3210;48.708;9.030;2023-12-20T22:34:11;3.80;1.00
